Aviation Digital Data Service (ADDS)

Output produced by METARs form (1057 UTC 18 June 2019)
found at http://www.aviationweather.gov/metar/data/
 
METAR text: VOVZ 181030Z 21009KT 5000 HZ FU FEW018 BKN090 36/24 Q0999 NOSIG
Conditions at: VOVZ (VIZAGAPATAM , IN) observed 1030 UTC 18 June 2019
Temperature: 36.0°C (97°F)
Dewpoint: 24.0°C (75°F) [RH = 50%]
Pressure (altimeter): 29.50 inches Hg (999.0 mb)
Winds: from the SSW (210 degrees) at 10 MPH (9 knots; 4.6 m/s)
Visibility: 3 miles ( 5 km)
Ceiling: 9000 feet AGL
Clouds: few clouds at 1800 feet AGL
broken clouds at 9000 feet AGL
Weather: HZ FU  (haze, smoke)

METAR text: VOVZ 181000Z 21010KT 6000 FEW018 BKN090 36/24 Q0999 NOSIG
Conditions at: VOVZ (VIZAGAPATAM , IN) observed 1000 UTC 18 June 2019
Temperature: 36.0°C (97°F)
Dewpoint: 24.0°C (75°F) [RH = 50%]
Pressure (altimeter): 29.50 inches Hg (999.0 mb)
Winds: from the SSW (210 degrees) at 12 MPH (10 knots; 5.1 m/s)
Visibility: 4 miles ( 6 km)
Ceiling: 9000 feet AGL
Clouds: few clouds at 1800 feet AGL
broken clouds at 9000 feet AGL
Weather: no significant weather observed at this time

METAR text: VOVZ 180930Z 21010KT 6000 FEW018 BKN090 36/24 Q0999 NOSIG
Conditions at: VOVZ (VIZAGAPATAM , IN) observed 0930 UTC 18 June 2019
Temperature: 36.0°C (97°F)
Dewpoint: 24.0°C (75°F) [RH = 50%]
Pressure (altimeter): 29.50 inches Hg (999.0 mb)
Winds: from the SSW (210 degrees) at 12 MPH (10 knots; 5.1 m/s)
Visibility: 4 miles ( 6 km)
Ceiling: 9000 feet AGL
Clouds: few clouds at 1800 feet AGL
broken clouds at 9000 feet AGL
Weather: no significant weather observed at this time

METAR text: VOVZ 180900Z 22010KT 6000 FEW018 SCT090 38/24 Q0999 NOSIG
Conditions at: VOVZ (VIZAGAPATAM , IN) observed 0900 UTC 18 June 2019
Temperature: 38.0°C (100°F)
Dewpoint: 24.0°C (75°F) [RH = 45%]
Pressure (altimeter): 29.50 inches Hg (999.0 mb)
Winds: from the SW (220 degrees) at 12 MPH (10 knots; 5.1 m/s)
Visibility: 4 miles ( 6 km)
Ceiling: at least 12,000 feet AGL
Clouds: few clouds at 1800 feet AGL
scattered clouds at 9000 feet AGL
Weather: no significant weather observed at this time

METAR text: VOVZ 180830Z 23010KT 6000 FEW018 SCT090 38/22 Q1000 NOSIG
Conditions at: VOVZ (VIZAGAPATAM , IN) observed 0830 UTC 18 June 2019
Temperature: 38.0°C (100°F)
Dewpoint: 22.0°C (72°F) [RH = 40%]
Pressure (altimeter): 29.53 inches Hg (1000.0 mb)
Winds: from the SW (230 degrees) at 12 MPH (10 knots; 5.1 m/s)
Visibility: 4 miles ( 6 km)
Ceiling: at least 12,000 feet AGL
Clouds: few clouds at 1800 feet AGL
scattered clouds at 9000 feet AGL
Weather: no significant weather observed at this time

METAR text: VOVZ 180800Z 22010KT 6000 FEW018 SCT090 40/21 Q1000 NOSIG
Conditions at: VOVZ (VIZAGAPATAM , IN) observed 0800 UTC 18 June 2019
Temperature: 40.0°C (104°F)
Dewpoint: 21.0°C (70°F) [RH = 34%]
Pressure (altimeter): 29.53 inches Hg (1000.0 mb)
Winds: from the SW (220 degrees) at 12 MPH (10 knots; 5.1 m/s)
Visibility: 4 miles ( 6 km)
Ceiling: at least 12,000 feet AGL
Clouds: few clouds at 1800 feet AGL
scattered clouds at 9000 feet AGL
Weather: no significant weather observed at this time

METAR text: VOVZ 180730Z 01010KT 6000 FEW018 SCT090 39/22 Q1000 NOSIG
Conditions at: VOVZ (VIZAGAPATAM , IN) observed 0730 UTC 18 June 2019
Temperature: 39.0°C (102°F)
Dewpoint: 22.0°C (72°F) [RH = 38%]
Pressure (altimeter): 29.53 inches Hg (1000.0 mb)
Winds: from the N (10 degrees) at 12 MPH (10 knots; 5.1 m/s)
Visibility: 4 miles ( 6 km)
Ceiling: at least 12,000 feet AGL
Clouds: few clouds at 1800 feet AGL
scattered clouds at 9000 feet AGL
Weather: no significant weather observed at this time

METAR text: VOVZ 180700Z 35010KT 6000 FEW018 SCT090 39/22 Q1001 NOSIG
Conditions at: VOVZ (VIZAGAPATAM , IN) observed 0700 UTC 18 June 2019
Temperature: 39.0°C (102°F)
Dewpoint: 22.0°C (72°F) [RH = 38%]
Pressure (altimeter): 29.56 inches Hg (1001.0 mb)
Winds: from the N (350 degrees) at 12 MPH (10 knots; 5.1 m/s)
Visibility: 4 miles ( 6 km)
Ceiling: at least 12,000 feet AGL
Clouds: few clouds at 1800 feet AGL
scattered clouds at 9000 feet AGL
Weather: no significant weather observed at this time

METAR text: VOVZ 180630Z 33008KT 6000 FEW018 SCT090 38/21 Q1001 NOSIG
Conditions at: VOVZ (VIZAGAPATAM , IN) observed 0630 UTC 18 June 2019
Temperature: 38.0°C (100°F)
Dewpoint: 21.0°C (70°F) [RH = 38%]
Pressure (altimeter): 29.56 inches Hg (1001.0 mb)
Winds: from the NNW (330 degrees) at 9 MPH (8 knots; 4.1 m/s)
Visibility: 4 miles ( 6 km)
Ceiling: at least 12,000 feet AGL
Clouds: few clouds at 1800 feet AGL
scattered clouds at 9000 feet AGL
Weather: no significant weather observed at this time

METAR text: VOVZ 180600Z 31010KT 6000 FEW018 SCT090 38/21 Q1001 NOSIG
Conditions at: VOVZ (VIZAGAPATAM , IN) observed 0600 UTC 18 June 2019
Temperature: 38.0°C (100°F)
Dewpoint: 21.0°C (70°F) [RH = 38%]
Pressure (altimeter): 29.56 inches Hg (1001.0 mb)
Winds: from the NW (310 degrees) at 12 MPH (10 knots; 5.1 m/s)
Visibility: 4 miles ( 6 km)
Ceiling: at least 12,000 feet AGL
Clouds: few clouds at 1800 feet AGL
scattered clouds at 9000 feet AGL
Weather: no significant weather observed at this time

METAR text: VOVZ 180500Z 29010KT 6000 FEW018 BKN090 37/21 Q1002 NOSIG
Conditions at: VOVZ (VIZAGAPATAM , IN) observed 0500 UTC 18 June 2019
Temperature: 37.0°C (99°F)
Dewpoint: 21.0°C (70°F) [RH = 40%]
Pressure (altimeter): 29.59 inches Hg (1002.0 mb)
Winds: from the WNW (290 degrees) at 12 MPH (10 knots; 5.1 m/s)
Visibility: 4 miles ( 6 km)
Ceiling: 9000 feet AGL
Clouds: few clouds at 1800 feet AGL
broken clouds at 9000 feet AGL
Weather: no significant weather observed at this time

METAR text: VOVZ 180430Z 28010G20KT 6000 FEW018 BKN090 37/21 Q1002 NOSIG
Conditions at: VOVZ (VIZAGAPATAM , IN) observed 0430 UTC 18 June 2019
Temperature: 37.0°C (99°F)
Dewpoint: 21.0°C (70°F) [RH = 40%]
Pressure (altimeter): 29.59 inches Hg (1002.0 mb)
Winds: from the W (280 degrees) at 12 MPH (10 knots; 5.1 m/s)
gusting to 23 MPH (20 knots; 10.3 m/s)
Visibility: 4 miles ( 6 km)
Ceiling: 9000 feet AGL
Clouds: few clouds at 1800 feet AGL
broken clouds at 9000 feet AGL
Weather: no significant weather observed at this time

METAR text: VOVZ 180400Z 29010G20KT 6000 FEW018 BKN090 36/21 Q1002 NOSIG
Conditions at: VOVZ (VIZAGAPATAM , IN) observed 0400 UTC 18 June 2019
Temperature: 36.0°C (97°F)
Dewpoint: 21.0°C (70°F) [RH = 42%]
Pressure (altimeter): 29.59 inches Hg (1002.0 mb)
Winds: from the WNW (290 degrees) at 12 MPH (10 knots; 5.1 m/s)
gusting to 23 MPH (20 knots; 10.3 m/s)
Visibility: 4 miles ( 6 km)
Ceiling: 9000 feet AGL
Clouds: few clouds at 1800 feet AGL
broken clouds at 9000 feet AGL
Weather: no significant weather observed at this time

METAR text: VOVZ 180330Z 28010KT 6000 FEW018 BKN090 36/21 Q1002 NOSIG
Conditions at: VOVZ (VIZAGAPATAM , IN) observed 0330 UTC 18 June 2019
Temperature: 36.0°C (97°F)
Dewpoint: 21.0°C (70°F) [RH = 42%]
Pressure (altimeter): 29.59 inches Hg (1002.0 mb)
Winds: from the W (280 degrees) at 12 MPH (10 knots; 5.1 m/s)
Visibility: 4 miles ( 6 km)
Ceiling: 9000 feet AGL
Clouds: few clouds at 1800 feet AGL
broken clouds at 9000 feet AGL
Weather: no significant weather observed at this time

METAR text: VOVZ 180300Z 29010KT 6000 FEW018 BKN090 34/21 Q1002 NOSIG
Conditions at: VOVZ (VIZAGAPATAM , IN) observed 0300 UTC 18 June 2019
Temperature: 34.0°C (93°F)
Dewpoint: 21.0°C (70°F) [RH = 47%]
Pressure (altimeter): 29.59 inches Hg (1002.0 mb)
Winds: from the WNW (290 degrees) at 12 MPH (10 knots; 5.1 m/s)
Visibility: 4 miles ( 6 km)
Ceiling: 9000 feet AGL
Clouds: few clouds at 1800 feet AGL
broken clouds at 9000 feet AGL
Weather: no significant weather observed at this time

METAR text: VOVZ 180230Z 28009KT 6000 FEW018 BKN090 32/22 Q1002 NOSIG
Conditions at: VOVZ (VIZAGAPATAM , IN) observed 0230 UTC 18 June 2019
Temperature: 32.0°C (90°F)
Dewpoint: 22.0°C (72°F) [RH = 56%]
Pressure (altimeter): 29.59 inches Hg (1002.0 mb)
Winds: from the W (280 degrees) at 10 MPH (9 knots; 4.6 m/s)
Visibility: 4 miles ( 6 km)
Ceiling: 9000 feet AGL
Clouds: few clouds at 1800 feet AGL
broken clouds at 9000 feet AGL
Weather: no significant weather observed at this time

METAR text: VOVZ 180200Z 27008KT 5000 HZ FEW018 BKN090 32/22 Q1002 NOSIG
Conditions at: VOVZ (VIZAGAPATAM , IN) observed 0200 UTC 18 June 2019
Temperature: 32.0°C (90°F)
Dewpoint: 22.0°C (72°F) [RH = 56%]
Pressure (altimeter): 29.59 inches Hg (1002.0 mb)
Winds: from the W (270 degrees) at 9 MPH (8 knots; 4.1 m/s)
Visibility: 3 miles ( 5 km)
Ceiling: 9000 feet AGL
Clouds: few clouds at 1800 feet AGL
broken clouds at 9000 feet AGL
Weather: HZ  (haze)

METAR text: VOVZ 180130Z 26012KT 5000 HZ FEW018 BKN090 31/23 Q1002 NOSIG
Conditions at: VOVZ (VIZAGAPATAM , IN) observed 0130 UTC 18 June 2019
Temperature: 31.0°C (88°F)
Dewpoint: 23.0°C (73°F) [RH = 63%]
Pressure (altimeter): 29.59 inches Hg (1002.0 mb)
Winds: from the W (260 degrees) at 14 MPH (12 knots; 6.2 m/s)
Visibility: 3 miles ( 5 km)
Ceiling: 9000 feet AGL
Clouds: few clouds at 1800 feet AGL
broken clouds at 9000 feet AGL
Weather: HZ  (haze)

METAR text: VOVZ 180100Z 29010KT 5000 HZ FEW018 BKN090 31/23 Q1002 NOSIG
Conditions at: VOVZ (VIZAGAPATAM , IN) observed 0100 UTC 18 June 2019
Temperature: 31.0°C (88°F)
Dewpoint: 23.0°C (73°F) [RH = 63%]
Pressure (altimeter): 29.59 inches Hg (1002.0 mb)
Winds: from the WNW (290 degrees) at 12 MPH (10 knots; 5.1 m/s)
Visibility: 3 miles ( 5 km)
Ceiling: 9000 feet AGL
Clouds: few clouds at 1800 feet AGL
broken clouds at 9000 feet AGL
Weather: HZ  (haze)

METAR text: VOVZ 180030Z 27010KT 5000 HZ FEW018 BKN090 30/23 Q1002 NOSIG
Conditions at: VOVZ (VIZAGAPATAM , IN) observed 0030 UTC 18 June 2019
Temperature: 30.0°C (86°F)
Dewpoint: 23.0°C (73°F) [RH = 66%]
Pressure (altimeter): 29.59 inches Hg (1002.0 mb)
Winds: from the W (270 degrees) at 12 MPH (10 knots; 5.1 m/s)
Visibility: 3 miles ( 5 km)
Ceiling: 9000 feet AGL
Clouds: few clouds at 1800 feet AGL
broken clouds at 9000 feet AGL
Weather: HZ  (haze)

METAR text: VOVZ 180000Z 24008KT 5000 HZ FEW018 BKN090 29/24 Q1002 NOSIG
Conditions at: VOVZ (VIZAGAPATAM , IN) observed 0000 UTC 18 June 2019
Temperature: 29.0°C (84°F)
Dewpoint: 24.0°C (75°F) [RH = 74%]
Pressure (altimeter): 29.59 inches Hg (1002.0 mb)
Winds: from the WSW (240 degrees) at 9 MPH (8 knots; 4.1 m/s)
Visibility: 3 miles ( 5 km)
Ceiling: 9000 feet AGL
Clouds: few clouds at 1800 feet AGL
broken clouds at 9000 feet AGL
Weather: HZ  (haze)

METAR text: VOVZ 172300Z 33004KT 5000 BR FEW016 BKN080 29/25 Q1002 NOSIG
Conditions at: VOVZ (VIZAGAPATAM , IN) observed 2300 UTC 17 June 2019
Temperature: 29.0°C (84°F)
Dewpoint: 25.0°C (77°F) [RH = 79%]
Pressure (altimeter): 29.59 inches Hg (1002.0 mb)
Winds: from the NNW (330 degrees) at 5 MPH (4 knots; 2.1 m/s)
Visibility: 3 miles ( 5 km)
Ceiling: 8000 feet AGL
Clouds: few clouds at 1600 feet AGL
broken clouds at 8000 feet AGL
Weather: BR  (mist)

METAR text: VOVZ 172200Z 29004KT 5000 BR FEW016 BKN080 29/25 Q1001 NOSIG
Conditions at: VOVZ (VIZAGAPATAM , IN) observed 2200 UTC 17 June 2019
Temperature: 29.0°C (84°F)
Dewpoint: 25.0°C (77°F) [RH = 79%]
Pressure (altimeter): 29.56 inches Hg (1001.0 mb)
Winds: from the WNW (290 degrees) at 5 MPH (4 knots; 2.1 m/s)
Visibility: 3 miles ( 5 km)
Ceiling: 8000 feet AGL
Clouds: few clouds at 1600 feet AGL
broken clouds at 8000 feet AGL
Weather: BR  (mist)

METAR text: VOVZ 171800Z 26009KT 5000 -DZ FEW016 OVC080 30/25 Q1003 TEMPO 3500 RA/DZ
Conditions at: VOVZ (VIZAGAPATAM , IN) observed 1800 UTC 17 June 2019
Temperature: 30.0°C (86°F)
Dewpoint: 25.0°C (77°F) [RH = 75%]
Pressure (altimeter): 29.62 inches Hg (1003.0 mb)
Winds: from the W (260 degrees) at 10 MPH (9 knots; 4.6 m/s)
Visibility: 3 miles ( 5 km)
Ceiling: 8000 feet AGL
Clouds: few clouds at 1600 feet AGL
overcast cloud deck at 8000 feet AGL
Weather: -DZ  (light drizzle)

METAR text: VOVZ 171730Z 26008KT 5000 -RA FEW016 OVC080 30/25 Q1004 TEMPO 3500 RA/DZ
Conditions at: VOVZ (VIZAGAPATAM , IN) observed 1730 UTC 17 June 2019
Temperature: 30.0°C (86°F)
Dewpoint: 25.0°C (77°F) [RH = 75%]
Pressure (altimeter): 29.65 inches Hg (1004.0 mb)
Winds: from the W (260 degrees) at 9 MPH (8 knots; 4.1 m/s)
Visibility: 3 miles ( 5 km)
Ceiling: 8000 feet AGL
Clouds: few clouds at 1600 feet AGL
overcast cloud deck at 8000 feet AGL
Weather: -RA  (light rain)

METAR text: VOVZ 171700Z 27011KT 6000 FEW018 BKN090 31/24 Q1004 NOSIG
Conditions at: VOVZ (VIZAGAPATAM , IN) observed 1700 UTC 17 June 2019
Temperature: 31.0°C (88°F)
Dewpoint: 24.0°C (75°F) [RH = 66%]
Pressure (altimeter): 29.65 inches Hg (1004.0 mb)
Winds: from the W (270 degrees) at 13 MPH (11 knots; 5.7 m/s)
Visibility: 4 miles ( 6 km)
Ceiling: 9000 feet AGL
Clouds: few clouds at 1800 feet AGL
broken clouds at 9000 feet AGL
Weather: no significant weather observed at this time

METAR text: VOVZ 171630Z 27009KT 6000 FEW018 BKN090 32/24 Q1004 NOSIG
Conditions at: VOVZ (VIZAGAPATAM , IN) observed 1630 UTC 17 June 2019
Temperature: 32.0°C (90°F)
Dewpoint: 24.0°C (75°F) [RH = 63%]
Pressure (altimeter): 29.65 inches Hg (1004.0 mb)
Winds: from the W (270 degrees) at 10 MPH (9 knots; 4.6 m/s)
Visibility: 4 miles ( 6 km)
Ceiling: 9000 feet AGL
Clouds: few clouds at 1800 feet AGL
broken clouds at 9000 feet AGL
Weather: no significant weather observed at this time

METAR text: VOVZ 171600Z 26008KT 6000 FEW018 BKN090 32/24 Q1003 NOSIG
Conditions at: VOVZ (VIZAGAPATAM , IN) observed 1600 UTC 17 June 2019
Temperature: 32.0°C (90°F)
Dewpoint: 24.0°C (75°F) [RH = 63%]
Pressure (altimeter): 29.62 inches Hg (1003.0 mb)
Winds: from the W (260 degrees) at 9 MPH (8 knots; 4.1 m/s)
Visibility: 4 miles ( 6 km)
Ceiling: 9000 feet AGL
Clouds: few clouds at 1800 feet AGL
broken clouds at 9000 feet AGL
Weather: no significant weather observed at this time

METAR text: VOVZ 171530Z 26008KT 6000 FEW018 BKN090 32/24 Q1003 NOSIG
Conditions at: VOVZ (VIZAGAPATAM , IN) observed 1530 UTC 17 June 2019
Temperature: 32.0°C (90°F)
Dewpoint: 24.0°C (75°F) [RH = 63%]
Pressure (altimeter): 29.62 inches Hg (1003.0 mb)
Winds: from the W (260 degrees) at 9 MPH (8 knots; 4.1 m/s)
Visibility: 4 miles ( 6 km)
Ceiling: 9000 feet AGL
Clouds: few clouds at 1800 feet AGL
broken clouds at 9000 feet AGL
Weather: no significant weather observed at this time

METAR text: VOVZ 171500Z 26008KT 6000 FEW018 BKN080 32/24 Q1003 NOSIG
Conditions at: VOVZ (VIZAGAPATAM , IN) observed 1500 UTC 17 June 2019
Temperature: 32.0°C (90°F)
Dewpoint: 24.0°C (75°F) [RH = 63%]
Pressure (altimeter): 29.62 inches Hg (1003.0 mb)
Winds: from the W (260 degrees) at 9 MPH (8 knots; 4.1 m/s)
Visibility: 4 miles ( 6 km)
Ceiling: 8000 feet AGL
Clouds: few clouds at 1800 feet AGL
broken clouds at 8000 feet AGL
Weather: no significant weather observed at this time

METAR text: VOVZ 171430Z 25008KT 6000 FEW018 BKN080 32/24 Q1002 NOSIG
Conditions at: VOVZ (VIZAGAPATAM , IN) observed 1430 UTC 17 June 2019
Temperature: 32.0°C (90°F)
Dewpoint: 24.0°C (75°F) [RH = 63%]
Pressure (altimeter): 29.59 inches Hg (1002.0 mb)
Winds: from the WSW (250 degrees) at 9 MPH (8 knots; 4.1 m/s)
Visibility: 4 miles ( 6 km)
Ceiling: 8000 feet AGL
Clouds: few clouds at 1800 feet AGL
broken clouds at 8000 feet AGL
Weather: no significant weather observed at this time

METAR text: VOVZ 171400Z 25008KT 6000 FEW018 BKN080 33/25 Q1002 NOSIG
Conditions at: VOVZ (VIZAGAPATAM , IN) observed 1400 UTC 17 June 2019
Temperature: 33.0°C (91°F)
Dewpoint: 25.0°C (77°F) [RH = 63%]
Pressure (altimeter): 29.59 inches Hg (1002.0 mb)
Winds: from the WSW (250 degrees) at 9 MPH (8 knots; 4.1 m/s)
Visibility: 4 miles ( 6 km)
Ceiling: 8000 feet AGL
Clouds: few clouds at 1800 feet AGL
broken clouds at 8000 feet AGL
Weather: no significant weather observed at this time

METAR text: VOVZ 171300Z 25009KT 6000 FEW018 BKN080 34/24 Q1001 NOSIG
Conditions at: VOVZ (VIZAGAPATAM , IN) observed 1300 UTC 17 June 2019
Temperature: 34.0°C (93°F)
Dewpoint: 24.0°C (75°F) [RH = 56%]
Pressure (altimeter): 29.56 inches Hg (1001.0 mb)
Winds: from the WSW (250 degrees) at 10 MPH (9 knots; 4.6 m/s)
Visibility: 4 miles ( 6 km)
Ceiling: 8000 feet AGL
Clouds: few clouds at 1800 feet AGL
broken clouds at 8000 feet AGL
Weather: no significant weather observed at this time

METAR text: VOVZ 171230Z 25010KT 6000 FEW018 BKN080 35/24 Q1001 NOSIG
Conditions at: VOVZ (VIZAGAPATAM , IN) observed 1230 UTC 17 June 2019
Temperature: 35.0°C (95°F)
Dewpoint: 24.0°C (75°F) [RH = 53%]
Pressure (altimeter): 29.56 inches Hg (1001.0 mb)
Winds: from the WSW (250 degrees) at 12 MPH (10 knots; 5.1 m/s)
Visibility: 4 miles ( 6 km)
Ceiling: 8000 feet AGL
Clouds: few clouds at 1800 feet AGL
broken clouds at 8000 feet AGL
Weather: no significant weather observed at this time

METAR text: VOVZ 171200Z 26010KT 6000 FEW018 BKN080 36/24 Q1000 NOSIG
Conditions at: VOVZ (VIZAGAPATAM , IN) observed 1200 UTC 17 June 2019
Temperature: 36.0°C (97°F)
Dewpoint: 24.0°C (75°F) [RH = 50%]
Pressure (altimeter): 29.53 inches Hg (1000.0 mb)
Winds: from the W (260 degrees) at 12 MPH (10 knots; 5.1 m/s)
Visibility: 4 miles ( 6 km)
Ceiling: 8000 feet AGL
Clouds: few clouds at 1800 feet AGL
broken clouds at 8000 feet AGL
Weather: no significant weather observed at this time

METAR text: VOVZ 171130Z 30008KT 6000 FEW018 BKN080 37/23 Q1000 NOSIG
Conditions at: VOVZ (VIZAGAPATAM , IN) observed 1130 UTC 17 June 2019
Temperature: 37.0°C (99°F)
Dewpoint: 23.0°C (73°F) [RH = 45%]
Pressure (altimeter): 29.53 inches Hg (1000.0 mb)
Winds: from the WNW (300 degrees) at 9 MPH (8 knots; 4.1 m/s)
Visibility: 4 miles ( 6 km)
Ceiling: 8000 feet AGL
Clouds: few clouds at 1800 feet AGL
broken clouds at 8000 feet AGL
Weather: no significant weather observed at this time

METAR text: VOVZ 171100Z 30009KT 6000 FEW018 BKN080 37/23 NOSIG
Conditions at: VOVZ (VIZAGAPATAM , IN) observed 1100 UTC 17 June 2019
Temperature: 37.0°C (99°F)
Dewpoint: 23.0°C (73°F) [RH = 45%]
Pressure (altimeter): missing
Winds: from the WNW (300 degrees) at 10 MPH (9 knots; 4.6 m/s)
Visibility: 4 miles ( 6 km)
Ceiling: 8000 feet AGL
Clouds: few clouds at 1800 feet AGL
broken clouds at 8000 feet AGL
Weather: no significant weather observed at this time

METAR text: VOVZ 171030Z 30010KT 6000 FEW018 BKN090 37/23 Q1000 NOSIG
Conditions at: VOVZ (VIZAGAPATAM , IN) observed 1030 UTC 17 June 2019
Temperature: 37.0°C (99°F)
Dewpoint: 23.0°C (73°F) [RH = 45%]
Pressure (altimeter): 29.53 inches Hg (1000.0 mb)
Winds: from the WNW (300 degrees) at 12 MPH (10 knots; 5.1 m/s)
Visibility: 4 miles ( 6 km)
Ceiling: 9000 feet AGL
Clouds: few clouds at 1800 feet AGL
broken clouds at 9000 feet AGL
Weather: no significant weather observed at this time

METAR text: VOVZ 171000Z 30008KT 6000 FEW018 BKN090 38/23 Q1000 NOSIG
Conditions at: VOVZ (VIZAGAPATAM , IN) observed 1000 UTC 17 June 2019
Temperature: 38.0°C (100°F)
Dewpoint: 23.0°C (73°F) [RH = 42%]
Pressure (altimeter): 29.53 inches Hg (1000.0 mb)
Winds: from the WNW (300 degrees) at 9 MPH (8 knots; 4.1 m/s)
Visibility: 4 miles ( 6 km)
Ceiling: 9000 feet AGL
Clouds: few clouds at 1800 feet AGL
broken clouds at 9000 feet AGL
Weather: no significant weather observed at this time

METAR text: VOVZ 170900Z 31008KT 6000 FEW018 BKN090 37/24 Q1000 NOSIG
Conditions at: VOVZ (VIZAGAPATAM , IN) observed 0900 UTC 17 June 2019
Temperature: 37.0°C (99°F)
Dewpoint: 24.0°C (75°F) [RH = 48%]
Pressure (altimeter): 29.53 inches Hg (1000.0 mb)
Winds: from the NW (310 degrees) at 9 MPH (8 knots; 4.1 m/s)
Visibility: 4 miles ( 6 km)
Ceiling: 9000 feet AGL
Clouds: few clouds at 1800 feet AGL
broken clouds at 9000 feet AGL
Weather: no significant weather observed at this time

METAR text: VOVZ 170830Z 29010KT 6000 FEW018 BKN090 37/24 Q1001 NOSIG
Conditions at: VOVZ (VIZAGAPATAM , IN) observed 0830 UTC 17 June 2019
Temperature: 37.0°C (99°F)
Dewpoint: 24.0°C (75°F) [RH = 48%]
Pressure (altimeter): 29.56 inches Hg (1001.0 mb)
Winds: from the WNW (290 degrees) at 12 MPH (10 knots; 5.1 m/s)
Visibility: 4 miles ( 6 km)
Ceiling: 9000 feet AGL
Clouds: few clouds at 1800 feet AGL
broken clouds at 9000 feet AGL
Weather: no significant weather observed at this time

METAR text: VOVZ 170800Z 34012KT 6000 FEW018 BKN090 38/24 Q1001 NOSIG
Conditions at: VOVZ (VIZAGAPATAM , IN) observed 0800 UTC 17 June 2019
Temperature: 38.0°C (100°F)
Dewpoint: 24.0°C (75°F) [RH = 45%]
Pressure (altimeter): 29.56 inches Hg (1001.0 mb)
Winds: from the NNW (340 degrees) at 14 MPH (12 knots; 6.2 m/s)
Visibility: 4 miles ( 6 km)
Ceiling: 9000 feet AGL
Clouds: few clouds at 1800 feet AGL
broken clouds at 9000 feet AGL
Weather: no significant weather observed at this time

METAR text: VOVZ 170730Z 34010KT 6000 FEW018 BKN090 38/24 Q1001 NOSIG
Conditions at: VOVZ (VIZAGAPATAM , IN) observed 0730 UTC 17 June 2019
Temperature: 38.0°C (100°F)
Dewpoint: 24.0°C (75°F) [RH = 45%]
Pressure (altimeter): 29.56 inches Hg (1001.0 mb)
Winds: from the NNW (340 degrees) at 12 MPH (10 knots; 5.1 m/s)
Visibility: 4 miles ( 6 km)
Ceiling: 9000 feet AGL
Clouds: few clouds at 1800 feet AGL
broken clouds at 9000 feet AGL
Weather: no significant weather observed at this time

METAR text: VOVZ 170700Z 31010KT 6000 FEW018 BKN090 38/24 Q1002 NOSIG
Conditions at: VOVZ (VIZAGAPATAM , IN) observed 0700 UTC 17 June 2019
Temperature: 38.0°C (100°F)
Dewpoint: 24.0°C (75°F) [RH = 45%]
Pressure (altimeter): 29.59 inches Hg (1002.0 mb)
Winds: from the NW (310 degrees) at 12 MPH (10 knots; 5.1 m/s)
Visibility: 4 miles ( 6 km)
Ceiling: 9000 feet AGL
Clouds: few clouds at 1800 feet AGL
broken clouds at 9000 feet AGL
Weather: no significant weather observed at this time

METAR text: VOVZ 170630Z 27010KT 6000 FEW018 BKN090 37/24 Q1002 NOSIG
Conditions at: VOVZ (VIZAGAPATAM , IN) observed 0630 UTC 17 June 2019
Temperature: 37.0°C (99°F)
Dewpoint: 24.0°C (75°F) [RH = 48%]
Pressure (altimeter): 29.59 inches Hg (1002.0 mb)
Winds: from the W (270 degrees) at 12 MPH (10 knots; 5.1 m/s)
Visibility: 4 miles ( 6 km)
Ceiling: 9000 feet AGL
Clouds: few clouds at 1800 feet AGL
broken clouds at 9000 feet AGL
Weather: no significant weather observed at this time

METAR text: VOVZ 170600Z 28008KT 6000 FEW018 BKN090 35/25 Q1002 NOSIG
Conditions at: VOVZ (VIZAGAPATAM , IN) observed 0600 UTC 17 June 2019
Temperature: 35.0°C (95°F)
Dewpoint: 25.0°C (77°F) [RH = 56%]
Pressure (altimeter): 29.59 inches Hg (1002.0 mb)
Winds: from the W (280 degrees) at 9 MPH (8 knots; 4.1 m/s)
Visibility: 4 miles ( 6 km)
Ceiling: 9000 feet AGL
Clouds: few clouds at 1800 feet AGL
broken clouds at 9000 feet AGL
Weather: no significant weather observed at this time

METAR text: VOVZ 170530Z 28006KT 6000 FEW018 BKN090 34/24 Q1003 NOSIG
Conditions at: VOVZ (VIZAGAPATAM , IN) observed 0530 UTC 17 June 2019
Temperature: 34.0°C (93°F)
Dewpoint: 24.0°C (75°F) [RH = 56%]
Pressure (altimeter): 29.62 inches Hg (1003.0 mb)
Winds: from the W (280 degrees) at 7 MPH (6 knots; 3.1 m/s)
Visibility: 4 miles ( 6 km)
Ceiling: 9000 feet AGL
Clouds: few clouds at 1800 feet AGL
broken clouds at 9000 feet AGL
Weather: no significant weather observed at this time

METAR text: VOVZ 170500Z 27006KT 6000 FEW018 BKN090 33/24 Q1003 NOSIG
Conditions at: VOVZ (VIZAGAPATAM , IN) observed 0500 UTC 17 June 2019
Temperature: 33.0°C (91°F)
Dewpoint: 24.0°C (75°F) [RH = 59%]
Pressure (altimeter): 29.62 inches Hg (1003.0 mb)
Winds: from the W (270 degrees) at 7 MPH (6 knots; 3.1 m/s)
Visibility: 4 miles ( 6 km)
Ceiling: 9000 feet AGL
Clouds: few clouds at 1800 feet AGL
broken clouds at 9000 feet AGL
Weather: no significant weather observed at this time

METAR text: VOVZ 170430Z 26005KT 6000 FEW018 BKN090 32/24 Q1003 NOSIG
Conditions at: VOVZ (VIZAGAPATAM , IN) observed 0430 UTC 17 June 2019
Temperature: 32.0°C (90°F)
Dewpoint: 24.0°C (75°F) [RH = 63%]
Pressure (altimeter): 29.62 inches Hg (1003.0 mb)
Winds: from the W (260 degrees) at 6 MPH (5 knots; 2.6 m/s)
Visibility: 4 miles ( 6 km)
Ceiling: 9000 feet AGL
Clouds: few clouds at 1800 feet AGL
broken clouds at 9000 feet AGL
Weather: no significant weather observed at this time

METAR text: VOVZ 170400Z VRB02KT 6000 FEW018 BKN090 31/24 Q1003 NOSIG
Conditions at: VOVZ (VIZAGAPATAM , IN) observed 0400 UTC 17 June 2019
Temperature: 31.0°C (88°F)
Dewpoint: 24.0°C (75°F) [RH = 66%]
Pressure (altimeter): 29.62 inches Hg (1003.0 mb)
Winds: variable direction winds at 2 MPH (2 knots; 1.0 m/s)
Visibility: 4 miles ( 6 km)
Ceiling: 9000 feet AGL
Clouds: few clouds at 1800 feet AGL
broken clouds at 9000 feet AGL
Weather: no significant weather observed at this time

METAR text: VOVZ 170330Z VRB02KT 6000 FEW018 BKN090 31/25 Q1003 NOSIG
Conditions at: VOVZ (VIZAGAPATAM , IN) observed 0330 UTC 17 June 2019
Temperature: 31.0°C (88°F)
Dewpoint: 25.0°C (77°F) [RH = 71%]
Pressure (altimeter): 29.62 inches Hg (1003.0 mb)
Winds: variable direction winds at 2 MPH (2 knots; 1.0 m/s)
Visibility: 4 miles ( 6 km)
Ceiling: 9000 feet AGL
Clouds: few clouds at 1800 feet AGL
broken clouds at 9000 feet AGL
Weather: no significant weather observed at this time

METAR text: VOVZ 170300Z VRB02KT 5000 HZ FEW018 BKN090 30/25 Q1003 NOSIG
Conditions at: VOVZ (VIZAGAPATAM , IN) observed 0300 UTC 17 June 2019
Temperature: 30.0°C (86°F)
Dewpoint: 25.0°C (77°F) [RH = 75%]
Pressure (altimeter): 29.62 inches Hg (1003.0 mb)
Winds: variable direction winds at 2 MPH (2 knots; 1.0 m/s)
Visibility: 3 miles ( 5 km)
Ceiling: 9000 feet AGL
Clouds: few clouds at 1800 feet AGL
broken clouds at 9000 feet AGL
Weather: HZ  (haze)

METAR text: VOVZ 170230Z VRB02KT 5000 HZ FEW018 BKN090 30/25 Q1002 NOSIG
Conditions at: VOVZ (VIZAGAPATAM , IN) observed 0230 UTC 17 June 2019
Temperature: 30.0°C (86°F)
Dewpoint: 25.0°C (77°F) [RH = 75%]
Pressure (altimeter): 29.59 inches Hg (1002.0 mb)
Winds: variable direction winds at 2 MPH (2 knots; 1.0 m/s)
Visibility: 3 miles ( 5 km)
Ceiling: 9000 feet AGL
Clouds: few clouds at 1800 feet AGL
broken clouds at 9000 feet AGL
Weather: HZ  (haze)

METAR text: VOVZ 170200Z 28005KT 5000 HZ FEW018 BKN090 30/24 Q1002 NOSIG
Conditions at: VOVZ (VIZAGAPATAM , IN) observed 0200 UTC 17 June 2019
Temperature: 30.0°C (86°F)
Dewpoint: 24.0°C (75°F) [RH = 70%]
Pressure (altimeter): 29.59 inches Hg (1002.0 mb)
Winds: from the W (280 degrees) at 6 MPH (5 knots; 2.6 m/s)
Visibility: 3 miles ( 5 km)
Ceiling: 9000 feet AGL
Clouds: few clouds at 1800 feet AGL
broken clouds at 9000 feet AGL
Weather: HZ  (haze)

METAR text: VOVZ 170130Z 29004KT 5000 BR FEW018 BKN090 29/25 Q1002 NOSIG
Conditions at: VOVZ (VIZAGAPATAM , IN) observed 0130 UTC 17 June 2019
Temperature: 29.0°C (84°F)
Dewpoint: 25.0°C (77°F) [RH = 79%]
Pressure (altimeter): 29.59 inches Hg (1002.0 mb)
Winds: from the WNW (290 degrees) at 5 MPH (4 knots; 2.1 m/s)
Visibility: 3 miles ( 5 km)
Ceiling: 9000 feet AGL
Clouds: few clouds at 1800 feet AGL
broken clouds at 9000 feet AGL
Weather: BR  (mist)

METAR text: VOVZ 170100Z VRB02KT 5000 BR FEW016 BKN090 29/25 Q1002 NOSIG
Conditions at: VOVZ (VIZAGAPATAM , IN) observed 0100 UTC 17 June 2019
Temperature: 29.0°C (84°F)
Dewpoint: 25.0°C (77°F) [RH = 79%]
Pressure (altimeter): 29.59 inches Hg (1002.0 mb)
Winds: variable direction winds at 2 MPH (2 knots; 1.0 m/s)
Visibility: 3 miles ( 5 km)
Ceiling: 9000 feet AGL
Clouds: few clouds at 1600 feet AGL
broken clouds at 9000 feet AGL
Weather: BR  (mist)

METAR text: VOVZ 170030Z 29006KT 4500 BR FEW016 BKN090 29/25 Q1002 NOSIG
Conditions at: VOVZ (VIZAGAPATAM , IN) observed 0030 UTC 17 June 2019
Temperature: 29.0°C (84°F)
Dewpoint: 25.0°C (77°F) [RH = 79%]
Pressure (altimeter): 29.59 inches Hg (1002.0 mb)
Winds: from the WNW (290 degrees) at 7 MPH (6 knots; 3.1 m/s)
Visibility: 2.80 miles (4.51 km)
Ceiling: 9000 feet AGL
Clouds: few clouds at 1600 feet AGL
broken clouds at 9000 feet AGL
Weather: BR  (mist)

METAR text: VOVZ 170000Z 26009KT 4500 BR FEW018 BKN090 28/25 Q1001 NOSIG
Conditions at: VOVZ (VIZAGAPATAM , IN) observed 0000 UTC 17 June 2019
Temperature: 28.0°C (82°F)
Dewpoint: 25.0°C (77°F) [RH = 84%]
Pressure (altimeter): 29.56 inches Hg (1001.0 mb)
Winds: from the W (260 degrees) at 10 MPH (9 knots; 4.6 m/s)
Visibility: 2.80 miles (4.51 km)
Ceiling: 9000 feet AGL
Clouds: few clouds at 1800 feet AGL
broken clouds at 9000 feet AGL
Weather: BR  (mist)

METAR text: VOVZ 162300Z 29007KT 5000 BR FEW018 BKN090 28/26 Q1002 NOSIG
Conditions at: VOVZ (VIZAGAPATAM , IN) observed 2300 UTC 16 June 2019
Temperature: 28.0°C (82°F)
Dewpoint: 26.0°C (79°F) [RH = 89%]
Pressure (altimeter): 29.59 inches Hg (1002.0 mb)
Winds: from the WNW (290 degrees) at 8 MPH (7 knots; 3.6 m/s)
Visibility: 3 miles ( 5 km)
Ceiling: 9000 feet AGL
Clouds: few clouds at 1800 feet AGL
broken clouds at 9000 feet AGL
Weather: BR  (mist)

Forecast for: VOVZ (VIZAGAPATAM , IN)
Text: TAF VOVZ 180800Z 1809/1818 22010KT 6000 FEW018 SCT090
Forecast period: 0900 to 1400 UTC 18 June 2019
Forecast type: FROM: standard forecast or significant change
Winds: from the SW (220 degrees) at 12 MPH (10 knots; 5.1 m/s)
Visibility: 4 miles (6 km)
Ceiling: at least 12,000 feet AGL
Clouds: few clouds at 1800 feet AGL
scattered clouds at 9000 feet AGL
Weather: no significant weather forecast for this period
Text: TEMPO 1810/1814 4000 -TSRA FEW025CB BKN090
Forecast period: 1000 to 1400 UTC 18 June 2019
Forecast type: TEMPORARY: The following changes expected for less than half the time period
Visibility: 2.49 miles (4.01 km)
Ceiling: 9000 feet AGL
Clouds: few clouds at 2500 feet AGL
broken clouds at 9000 feet AGL
Weather: -TSRA  (light rain associated with thunderstorm(s))
Text: BECMG 1814/1816 6000 FEW018 SCT090
Forecast period: 1400 to 1800 UTC 18 June 2019
Forecast type: BECOMING: Conditions expected to become as follows by 1600 UTC 18 June 2019
Winds: from the SW (220 degrees) at 12 MPH (10 knots; 5.1 m/s)
Visibility: 4 miles (6 km)
Ceiling: at least 12,000 feet AGL
Clouds: few clouds at 1800 feet AGL
scattered clouds at 9000 feet AGL
Weather: no significant weather forecast for this period